createdAt,value
2023-03-06T00:02:52.325Z,80.10
2023-03-06T00:06:55.547Z,79.86
2023-03-06T00:11:00.966Z,80.01
2023-03-06T00:15:05.705Z,82.15
2023-03-06T00:19:08.956Z,81.86
2023-03-06T00:23:13.804Z,82.29
2023-03-06T00:27:18.309Z,80.75
2023-03-06T00:31:21.297Z,81.14
2023-03-06T00:35:24.647Z,83.56
2023-03-06T00:39:27.865Z,82.14
2023-03-06T00:43:32.249Z,81.58
2023-03-06T00:47:35.526Z,83.17
2023-03-06T00:51:38.743Z,80.74
2023-03-06T00:55:44.761Z,83.58
2023-03-06T00:59:49.454Z,83.05
2023-03-06T01:03:52.652Z,82.09
2023-03-06T01:07:55.748Z,81.91
2023-03-06T01:11:59.030Z,81.65
2023-03-06T01:16:12.373Z,83.22
2023-03-06T01:20:17.113Z,81.90
2023-03-06T01:24:20.300Z,82.87
2023-03-06T01:28:23.810Z,82.55
2023-03-06T01:32:28.718Z,82.70
2023-03-06T01:36:31.835Z,83.23
2023-03-06T01:40:37.365Z,82.27
2023-03-06T01:45:02.173Z,84.12
2023-03-06T01:49:11.010Z,83.33
2023-03-06T01:53:16.655Z,84.93
2023-03-06T01:57:22.470Z,82.51
2023-03-06T02:01:25.893Z,83.65
2023-03-06T02:05:30.345Z,84.83
2023-03-06T02:09:34.843Z,84.97
2023-03-06T02:13:38.696Z,83.62
2023-03-06T02:17:42.818Z,82.77
2023-03-06T02:21:47.295Z,83.65
2023-03-06T02:25:53.743Z,84.77
2023-03-06T02:29:56.926Z,84.83
2023-03-06T02:34:05.153Z,83.71
2023-03-06T02:38:12.849Z,83.60
2023-03-06T02:42:21.707Z,85.12
2023-03-06T02:46:24.839Z,85.93
2023-03-06T02:50:27.908Z,85.93
2023-03-06T02:54:31.176Z,85.53
2023-03-06T02:58:35.818Z,86.12
2023-03-06T03:02:39.157Z,86.04
2023-03-06T03:06:42.246Z,83.92
2023-03-06T03:10:45.488Z,86.39
2023-03-06T03:14:50.186Z,86.65
2023-03-06T03:18:53.461Z,84.43
2023-03-06T03:22:57.614Z,85.21
2023-03-06T03:27:00.387Z,85.54
2023-03-06T03:31:06.568Z,84.14
2023-03-06T03:35:11.285Z,86.75
2023-03-06T03:39:14.781Z,87.65
2023-03-06T03:43:18.373Z,86.97
2023-03-06T03:47:23.052Z,87.05
2023-03-06T03:51:26.312Z,87.64
2023-03-06T03:55:30.217Z,85.45
2023-03-06T03:59:33.421Z,85.27
2023-03-06T04:03:38.048Z,84.26
2023-03-06T04:07:41.460Z,86.56
2023-03-06T04:11:44.695Z,85.37
2023-03-06T04:15:47.964Z,84.96
2023-03-06T04:19:52.470Z,86.05
2023-03-06T04:23:55.634Z,85.13
2023-03-06T04:27:58.741Z,86.95
2023-03-06T04:32:02.041Z,87.51
2023-03-06T04:36:07.453Z,87.42
2023-03-06T04:40:13.809Z,87.49
2023-03-06T04:44:16.984Z,86.77
2023-03-06T04:48:20.649Z,86.97
2023-03-06T04:52:24.973Z,86.86
2023-03-06T04:56:28.197Z,84.94
2023-03-06T05:00:31.928Z,85.76
2023-03-06T05:04:35.357Z,85.76
2023-03-06T05:08:40.086Z,84.37
2023-03-06T05:12:43.371Z,84.36
2023-03-06T05:16:47.805Z,86.24
2023-03-06T05:20:50.816Z,84.66
2023-03-06T05:24:55.401Z,86.48
2023-03-06T05:28:58.822Z,87.46
2023-03-06T05:33:02.252Z,86.79
2023-03-06T05:37:05.500Z,85.11
2023-03-06T05:41:12.937Z,86.54
2023-03-06T05:45:16.048Z,87.54
2023-03-06T05:49:19.954Z,88.23
2023-03-06T05:53:22.758Z,87.29
2023-03-06T05:57:26.912Z,87.20
2023-03-06T06:01:30.496Z,87.44
2023-03-06T06:05:33.299Z,88.49
2023-03-06T06:09:35.998Z,87.72
2023-03-06T06:13:40.638Z,87.56
2023-03-06T06:17:44.476Z,86.76
2023-03-06T06:21:48.424Z,88.06
2023-03-06T06:25:51.609Z,88.90
2023-03-06T06:29:56.027Z,87.14
2023-03-06T06:33:58.630Z,89.63
2023-03-06T06:38:01.479Z,87.96
2023-03-06T06:42:27.794Z,88.58
2023-03-06T06:47:19.304Z,87.56
2023-03-06T06:50:56.639Z,87.28
2023-03-06T06:54:59.390Z,86.88
2023-03-06T06:59:15.775Z,86.65
2023-03-06T07:03:20.881Z,87.16
2023-03-06T07:07:25.485Z,86.12
2023-03-06T07:11:29.306Z,86.53
2023-03-06T07:15:32.036Z,86.91
2023-03-06T07:19:37.974Z,86.40
2023-03-06T07:23:41.734Z,87.47
2023-03-06T07:27:51.084Z,87.69
2023-03-06T07:31:56.107Z,87.01
2023-03-06T07:36:00.468Z,88.23
2023-03-06T07:40:04.013Z,87.74
2023-03-06T07:44:06.899Z,87.27
2023-03-06T07:48:09.673Z,87.11
2023-03-06T07:52:13.900Z,87.22
2023-03-06T07:56:16.989Z,88.18
2023-03-06T08:00:20.657Z,88.47
2023-03-06T08:04:23.404Z,89.00
2023-03-06T08:08:27.608Z,89.42
2023-03-06T08:12:32.504Z,89.25
2023-03-06T08:16:35.386Z,89.16
2023-03-06T08:20:38.226Z,88.55
2023-03-06T08:24:42.960Z,87.70
2023-03-06T08:28:45.734Z,87.45
2023-03-06T08:32:48.543Z,89.13
2023-03-06T08:36:51.404Z,87.95
2023-03-06T08:40:55.624Z,90.28
2023-03-06T08:44:58.373Z,89.97
2023-03-06T08:49:01.174Z,90.10
2023-03-06T08:53:05.256Z,89.84
2023-03-06T08:57:09.556Z,90.37
2023-03-06T09:01:14.871Z,90.63
2023-03-06T09:05:17.859Z,90.41
2023-03-06T09:09:20.625Z,88.71
2023-03-06T09:13:24.746Z,88.32
2023-03-06T09:17:27.538Z,87.63
2023-03-06T09:21:30.399Z,87.74
2023-03-06T09:25:33.178Z,87.39
2023-03-06T09:29:37.280Z,88.31
2023-03-06T09:33:40.345Z,89.80
2023-03-06T09:37:43.231Z,88.08
2023-03-06T09:41:47.327Z,87.82
2023-03-06T09:45:51.873Z,88.43
2023-03-06T09:50:08.767Z,87.70
2023-03-06T09:54:14.827Z,88.09
2023-03-06T09:58:19.160Z,89.24
2023-03-06T10:02:28.503Z,88.08
2023-03-06T10:06:32.445Z,88.10
2023-03-06T10:10:42.203Z,89.34
2023-03-06T10:14:49.119Z,87.38
2023-03-06T10:18:54.244Z,87.58
2023-03-06T10:23:20.969Z,86.73
2023-03-06T10:27:34.096Z,87.07
2023-03-06T10:31:37.688Z,89.03
2023-03-06T10:35:50.520Z,87.78
2023-03-06T10:39:56.192Z,88.34
2023-03-06T10:44:19.232Z,88.63
2023-03-06T10:48:22.802Z,88.41
2023-03-06T10:52:30.476Z,86.57
2023-03-06T10:56:34.637Z,89.01
2023-03-06T11:00:37.422Z,86.17
2023-03-06T11:04:41.740Z,86.62
2023-03-06T11:08:46.021Z,86.40
2023-03-06T11:12:57.240Z,86.86
2023-03-06T11:17:00.013Z,85.56
2023-03-06T11:21:05.062Z,87.83
2023-03-06T11:25:11.246Z,86.60
2023-03-06T11:29:27.845Z,86.08
2023-03-06T11:33:36.696Z,86.00
2023-03-06T11:37:45.357Z,87.06
2023-03-06T11:41:54.185Z,87.74
2023-03-06T11:46:00.568Z,86.26
2023-03-06T11:50:15.751Z,86.18
2023-03-06T11:54:18.583Z,85.81
2023-03-06T12:03:03.727Z,85.12
2023-03-06T12:07:17.977Z,86.08
2023-03-06T12:11:23.900Z,85.92
2023-03-06T12:15:35.711Z,85.94
2023-03-06T12:19:52.203Z,85.17
2023-03-06T12:24:09.404Z,84.81
2023-03-06T12:28:40.445Z,84.91
2023-03-06T12:32:50.035Z,86.34
2023-03-06T12:37:02.725Z,85.11
2023-03-06T12:41:17.189Z,86.60
2023-03-06T12:45:28.313Z,87.09
2023-03-06T12:49:33.430Z,86.27
2023-03-06T12:53:37.937Z,85.58
2023-03-06T12:57:41.826Z,86.95
2023-03-06T13:02:09.469Z,86.91
2023-03-06T13:06:32.415Z,86.24
2023-03-06T13:10:39.193Z,87.17
2023-03-06T13:14:56.897Z,86.47
2023-03-06T13:19:05.159Z,87.62
2023-03-06T13:23:43.235Z,87.82
2023-03-06T13:27:48.516Z,88.81
2023-03-06T13:32:08.887Z,88.33
2023-03-06T13:36:26.702Z,87.98
2023-03-06T13:40:34.338Z,88.13
2023-03-06T13:44:48.938Z,87.92
2023-03-06T13:49:06.509Z,87.18
2023-03-06T13:53:38.835Z,87.78
2023-03-06T13:57:51.956Z,87.39
2023-03-06T14:02:04.087Z,87.34
2023-03-06T14:06:42.359Z,87.19
2023-03-06T14:10:46.746Z,87.50
2023-03-06T14:14:52.474Z,86.58
2023-03-06T14:18:58.000Z,85.53
2023-03-06T14:23:16.507Z,83.63
2023-03-06T14:27:19.818Z,85.21
2023-03-06T14:31:24.446Z,82.93
2023-03-06T14:35:31.177Z,84.15
2023-03-06T14:39:36.033Z,83.95
2023-03-06T14:43:39.011Z,84.78
2023-03-06T14:47:41.860Z,83.22
2023-03-06T14:51:47.979Z,85.67
2023-03-06T14:55:53.235Z,85.55
2023-03-06T14:59:58.419Z,85.67
2023-03-06T15:04:02.649Z,85.04
2023-03-06T15:08:09.646Z,84.30
2023-03-06T15:12:34.881Z,84.51
2023-03-06T15:16:37.986Z,84.66
2023-03-06T15:20:45.794Z,84.84
2023-03-06T15:24:49.890Z,84.13
2023-03-06T15:29:08.312Z,84.18
2023-03-06T15:33:20.889Z,83.85
2023-03-06T15:37:28.989Z,83.74
2023-03-06T15:41:35.743Z,83.05
2023-03-06T15:45:38.620Z,83.74
2023-03-06T15:49:41.962Z,83.20
2023-03-06T15:53:44.709Z,84.15
2023-03-06T15:57:51.339Z,83.61
2023-03-06T16:01:54.478Z,83.49
2023-03-06T16:05:57.233Z,81.88
2023-03-06T16:10:00.066Z,82.23
2023-03-06T16:14:04.818Z,82.28
2023-03-06T16:18:08.361Z,81.81
2023-03-06T16:22:11.319Z,82.56
2023-03-06T16:26:21.478Z,83.69
2023-03-06T16:30:26.827Z,83.18
2023-03-06T16:34:29.829Z,82.44
2023-03-06T16:38:32.785Z,83.04
2023-03-06T16:42:35.635Z,82.22
2023-03-06T16:46:41.609Z,83.43
2023-03-06T16:50:44.522Z,82.94
2023-03-06T16:54:47.291Z,82.77
2023-03-06T16:58:50.260Z,83.63
2023-03-06T17:02:54.546Z,83.58
2023-03-06T17:06:57.241Z,83.52
2023-03-06T17:10:59.958Z,83.55
2023-03-06T17:15:02.875Z,82.90
2023-03-06T17:19:07.435Z,84.76
2023-03-06T17:23:10.411Z,83.96
2023-03-06T17:27:14.346Z,84.80
2023-03-06T17:31:18.737Z,85.02
2023-03-06T17:35:22.735Z,84.91
2023-03-06T17:39:25.973Z,85.48
2023-03-06T17:43:32.904Z,86.27
2023-03-06T17:47:36.514Z,87.46
2023-03-06T17:51:42.394Z,86.60
2023-03-06T17:55:45.697Z,87.33
2023-03-06T17:59:49.227Z,87.03
2023-03-06T18:03:52.767Z,88.12
2023-03-06T18:08:01.220Z,88.60
2023-03-06T18:12:04.731Z,88.52
2023-03-06T18:16:08.947Z,87.66
2023-03-06T18:20:13.212Z,87.80
2023-03-06T18:24:17.959Z,87.23
2023-03-06T18:28:22.282Z,88.31
2023-03-06T18:32:25.713Z,88.70
2023-03-06T18:36:30.816Z,88.87
2023-03-06T18:40:35.849Z,89.39
2023-03-06T18:44:39.170Z,89.06
2023-03-06T18:48:42.468Z,88.88
2023-03-06T18:52:45.967Z,88.77
2023-03-06T18:56:50.869Z,88.88
2023-03-06T19:00:54.549Z,89.13
2023-03-06T19:04:58.016Z,89.36
2023-03-06T19:09:02.306Z,88.85
2023-03-06T19:13:07.551Z,89.15
2023-03-06T19:17:10.961Z,88.51
2023-03-06T19:21:15.943Z,89.46
2023-03-06T19:25:19.580Z,89.20
2023-03-06T19:29:24.377Z,89.29
2023-03-06T19:33:27.907Z,88.96
2023-03-06T19:37:31.142Z,88.66
2023-03-06T19:41:35.019Z,88.21
2023-03-06T19:45:43.140Z,88.52
2023-03-06T19:49:46.218Z,88.48
2023-03-06T19:53:49.443Z,88.49
2023-03-06T19:57:54.041Z,89.10
2023-03-06T20:01:58.629Z,88.37
2023-03-06T20:06:03.058Z,89.39
2023-03-06T20:10:07.007Z,88.92
2023-03-06T20:14:13.382Z,88.70
2023-03-06T20:18:18.073Z,88.73
2023-03-06T20:22:21.366Z,88.83
2023-03-06T20:26:24.710Z,88.55
2023-03-06T20:30:37.493Z,89.00
2023-03-06T20:34:42.990Z,88.84
2023-03-06T20:38:48.025Z,88.94
2023-03-06T20:42:51.407Z,88.22
2023-03-06T20:46:55.377Z,87.64
2023-03-06T20:51:07.155Z,89.43
2023-03-06T20:55:11.236Z,88.77
2023-03-06T20:59:14.310Z,87.79
2023-03-06T21:03:17.695Z,87.93
2023-03-06T21:07:22.585Z,87.88
2023-03-06T21:11:26.286Z,88.63
2023-03-06T21:15:30.250Z,88.75
2023-03-06T21:19:33.479Z,88.32
2023-03-06T21:23:40.821Z,88.20
2023-03-06T21:27:44.265Z,88.59
2023-03-06T21:31:47.611Z,88.85
2023-03-06T21:35:50.751Z,87.44
2023-03-06T21:39:55.757Z,87.78
2023-03-06T21:44:00.132Z,87.16
2023-03-06T21:48:03.322Z,87.37
2023-03-06T21:52:06.900Z,86.82
2023-03-06T21:56:11.527Z,87.09
2023-03-06T22:00:14.892Z,86.36
2023-03-06T22:04:24.272Z,86.19
2023-03-06T22:08:28.335Z,85.98
2023-03-06T22:12:34.984Z,85.72
2023-03-06T22:16:37.986Z,86.74
2023-03-06T22:20:41.279Z,85.97
2023-03-06T22:24:44.483Z,87.26
2023-03-06T22:28:49.263Z,86.81
2023-03-06T22:32:53.805Z,86.33
2023-03-06T22:36:57.116Z,86.42
2023-03-06T22:41:01.152Z,86.65
2023-03-06T22:45:06.693Z,86.75
2023-03-06T22:49:11.729Z,86.31
2023-03-06T22:53:14.862Z,88.01
2023-03-06T22:57:18.221Z,88.02
2023-03-06T23:01:25.140Z,88.13
2023-03-06T23:05:29.501Z,88.78
2023-03-06T23:09:33.371Z,89.13
2023-03-06T23:13:37.007Z,89.62
2023-03-06T23:17:41.887Z,89.72
2023-03-06T23:21:45.347Z,89.01
2023-03-06T23:25:49.029Z,90.15
2023-03-06T23:29:55.290Z,90.57
2023-03-06T23:34:00.937Z,90.60
2023-03-06T23:38:04.053Z,91.22
2023-03-06T23:42:07.199Z,91.51
2023-03-06T23:46:10.367Z,92.05
2023-03-06T23:50:15.074Z,91.84
2023-03-06T23:54:19.426Z,91.97
2023-03-06T23:58:23.057Z,91.48
